sensor_id;sensor_type;location;lat;lon;timestamp;temperature;humidity
36374;DHT22;22399;51.346;12.372;2023-07-29T00:00:13;19.70;99.90
36374;DHT22;22399;51.346;12.372;2023-07-29T00:02:41;19.70;99.90
36374;DHT22;22399;51.346;12.372;2023-07-29T00:05:11;19.70;99.90
36374;DHT22;22399;51.346;12.372;2023-07-29T00:07:40;19.70;99.90
36374;DHT22;22399;51.346;12.372;2023-07-29T00:10:09;19.70;99.90
36374;DHT22;22399;51.346;12.372;2023-07-29T00:12:37;19.70;99.90
36374;DHT22;22399;51.346;12.372;2023-07-29T00:15:07;19.70;99.90
36374;DHT22;22399;51.346;12.372;2023-07-29T00:17:36;19.60;99.90
36374;DHT22;22399;51.346;12.372;2023-07-29T00:20:06;19.60;99.90
36374;DHT22;22399;51.346;12.372;2023-07-29T00:22:35;19.70;99.90
36374;DHT22;22399;51.346;12.372;2023-07-29T00:25:04;19.60;99.90
36374;DHT22;22399;51.346;12.372;2023-07-29T00:27:32;19.60;99.90
36374;DHT22;22399;51.346;12.372;2023-07-29T00:30:00;19.60;99.90
36374;DHT22;22399;51.346;12.372;2023-07-29T00:32:29;19.50;99.90
36374;DHT22;22399;51.346;12.372;2023-07-29T00:34:59;19.50;99.90
36374;DHT22;22399;51.346;12.372;2023-07-29T00:37:28;19.50;99.90
36374;DHT22;22399;51.346;12.372;2023-07-29T00:39:57;19.50;99.90
36374;DHT22;22399;51.346;12.372;2023-07-29T00:42:26;19.50;99.90
36374;DHT22;22399;51.346;12.372;2023-07-29T00:44:54;19.60;99.90
36374;DHT22;22399;51.346;12.372;2023-07-29T00:47:24;19.70;99.90
36374;DHT22;22399;51.346;12.372;2023-07-29T00:49:54;19.70;99.90
36374;DHT22;22399;51.346;12.372;2023-07-29T00:52:23;19.70;99.90
36374;DHT22;22399;51.346;12.372;2023-07-29T00:54:54;19.70;99.90
36374;DHT22;22399;51.346;12.372;2023-07-29T00:57:23;19.70;99.90
36374;DHT22;22399;51.346;12.372;2023-07-29T00:59:53;19.70;99.90
36374;DHT22;22399;51.346;12.372;2023-07-29T01:02:21;19.70;99.90
36374;DHT22;22399;51.346;12.372;2023-07-29T01:04:52;19.70;99.90
36374;DHT22;22399;51.346;12.372;2023-07-29T01:07:28;19.70;99.90
36374;DHT22;22399;51.346;12.372;2023-07-29T01:10:01;19.60;99.90
36374;DHT22;22399;51.346;12.372;2023-07-29T01:12:37;19.60;99.90
36374;DHT22;22399;51.346;12.372;2023-07-29T01:15:12;19.60;99.90
36374;DHT22;22399;51.346;12.372;2023-07-29T01:17:49;19.50;99.90
36374;DHT22;22399;51.346;12.372;2023-07-29T01:20:21;19.50;99.90
36374;DHT22;22399;51.346;12.372;2023-07-29T01:22:53;19.50;99.90
36374;DHT22;22399;51.346;12.372;2023-07-29T01:25:23;19.50;99.90
36374;DHT22;22399;51.346;12.372;2023-07-29T01:27:52;19.30;99.90
36374;DHT22;22399;51.346;12.372;2023-07-29T01:30:27;19.30;99.90
36374;DHT22;22399;51.346;12.372;2023-07-29T01:33:02;19.30;99.90
36374;DHT22;22399;51.346;12.372;2023-07-29T01:35:36;19.40;99.90
36374;DHT22;22399;51.346;12.372;2023-07-29T01:38:12;19.30;99.90
36374;DHT22;22399;51.346;12.372;2023-07-29T01:40:43;19.40;99.90
36374;DHT22;22399;51.346;12.372;2023-07-29T01:43:12;19.40;99.90
36374;DHT22;22399;51.346;12.372;2023-07-29T01:45:40;19.40;99.90
36374;DHT22;22399;51.346;12.372;2023-07-29T01:48:09;19.50;99.90
36374;DHT22;22399;51.346;12.372;2023-07-29T01:50:37;19.50;99.90
36374;DHT22;22399;51.346;12.372;2023-07-29T01:53:05;19.50;99.90
36374;DHT22;22399;51.346;12.372;2023-07-29T01:55:34;19.50;99.90
36374;DHT22;22399;51.346;12.372;2023-07-29T01:58:04;19.50;99.90
36374;DHT22;22399;51.346;12.372;2023-07-29T02:00:35;19.50;99.90
36374;DHT22;22399;51.346;12.372;2023-07-29T02:03:03;19.50;99.90
36374;DHT22;22399;51.346;12.372;2023-07-29T02:05:31;19.50;99.90
36374;DHT22;22399;51.346;12.372;2023-07-29T02:08:00;19.50;99.90
36374;DHT22;22399;51.346;12.372;2023-07-29T02:10:28;19.50;99.90
36374;DHT22;22399;51.346;12.372;2023-07-29T02:12:57;19.50;99.90
36374;DHT22;22399;51.346;12.372;2023-07-29T02:15:26;19.50;99.90
36374;DHT22;22399;51.346;12.372;2023-07-29T02:17:55;19.50;99.90
36374;DHT22;22399;51.346;12.372;2023-07-29T02:20:26;19.50;99.90
36374;DHT22;22399;51.346;12.372;2023-07-29T02:22:54;19.50;99.90
36374;DHT22;22399;51.346;12.372;2023-07-29T02:25:23;19.50;99.90
36374;DHT22;22399;51.346;12.372;2023-07-29T02:27:51;19.50;99.90
36374;DHT22;22399;51.346;12.372;2023-07-29T02:30:20;19.50;99.90
36374;DHT22;22399;51.346;12.372;2023-07-29T02:32:50;19.50;99.90
36374;DHT22;22399;51.346;12.372;2023-07-29T02:35:18;19.50;99.90
36374;DHT22;22399;51.346;12.372;2023-07-29T02:37:47;19.40;99.90
36374;DHT22;22399;51.346;12.372;2023-07-29T02:40:19;19.40;99.90
36374;DHT22;22399;51.346;12.372;2023-07-29T02:42:50;19.30;99.90
36374;DHT22;22399;51.346;12.372;2023-07-29T02:45:18;19.20;99.90
36374;DHT22;22399;51.346;12.372;2023-07-29T02:47:47;19.10;99.90
36374;DHT22;22399;51.346;12.372;2023-07-29T02:50:17;19.00;99.90
36374;DHT22;22399;51.346;12.372;2023-07-29T02:52:46;18.90;99.90
36374;DHT22;22399;51.346;12.372;2023-07-29T02:55:17;18.90;99.90
36374;DHT22;22399;51.346;12.372;2023-07-29T02:57:46;18.80;99.90
36374;DHT22;22399;51.346;12.372;2023-07-29T03:00:14;18.80;99.90
36374;DHT22;22399;51.346;12.372;2023-07-29T03:02:43;18.80;99.90
36374;DHT22;22399;51.346;12.372;2023-07-29T03:05:11;18.80;99.90
36374;DHT22;22399;51.346;12.372;2023-07-29T03:07:42;18.70;99.90
36374;DHT22;22399;51.346;12.372;2023-07-29T03:10:11;18.70;99.90
36374;DHT22;22399;51.346;12.372;2023-07-29T03:12:40;18.70;99.90
36374;DHT22;22399;51.346;12.372;2023-07-29T03:15:09;18.70;99.90
36374;DHT22;22399;51.346;12.372;2023-07-29T03:17:38;18.60;99.90
36374;DHT22;22399;51.346;12.372;2023-07-29T03:20:07;18.60;99.90
36374;DHT22;22399;51.346;12.372;2023-07-29T03:22:36;18.60;99.90
36374;DHT22;22399;51.346;12.372;2023-07-29T03:25:07;18.60;99.90
36374;DHT22;22399;51.346;12.372;2023-07-29T03:27:35;18.60;99.90
36374;DHT22;22399;51.346;12.372;2023-07-29T03:30:04;18.60;99.90
36374;DHT22;22399;51.346;12.372;2023-07-29T03:32:33;18.50;99.90
36374;DHT22;22399;51.346;12.372;2023-07-29T03:35:02;18.50;99.90
36374;DHT22;22399;51.346;12.372;2023-07-29T03:37:31;18.50;99.90
36374;DHT22;22399;51.346;12.372;2023-07-29T03:39:59;18.50;99.90
36374;DHT22;22399;51.346;12.372;2023-07-29T03:42:32;18.50;99.90
36374;DHT22;22399;51.346;12.372;2023-07-29T03:45:01;18.50;99.90
36374;DHT22;22399;51.346;12.372;2023-07-29T03:47:29;18.40;99.90
36374;DHT22;22399;51.346;12.372;2023-07-29T03:49:59;18.40;99.90
36374;DHT22;22399;51.346;12.372;2023-07-29T03:52:27;18.40;99.90
36374;DHT22;22399;51.346;12.372;2023-07-29T03:54:55;18.40;99.90
36374;DHT22;22399;51.346;12.372;2023-07-29T03:57:24;18.40;99.90
36374;DHT22;22399;51.346;12.372;2023-07-29T03:59:54;18.40;99.90
36374;DHT22;22399;51.346;12.372;2023-07-29T04:02:22;18.30;99.90
36374;DHT22;22399;51.346;12.372;2023-07-29T04:04:51;18.30;99.90
36374;DHT22;22399;51.346;12.372;2023-07-29T04:07:20;18.30;99.90
36374;DHT22;22399;51.346;12.372;2023-07-29T04:09:48;18.30;99.90
36374;DHT22;22399;51.346;12.372;2023-07-29T04:12:17;18.30;99.90
36374;DHT22;22399;51.346;12.372;2023-07-29T04:14:48;18.30;99.90
36374;DHT22;22399;51.346;12.372;2023-07-29T04:17:18;18.40;99.90
36374;DHT22;22399;51.346;12.372;2023-07-29T04:19:46;18.40;99.90
36374;DHT22;22399;51.346;12.372;2023-07-29T04:22:16;18.40;99.90
36374;DHT22;22399;51.346;12.372;2023-07-29T04:24:44;18.50;99.90
36374;DHT22;22399;51.346;12.372;2023-07-29T04:27:13;18.60;99.90
36374;DHT22;22399;51.346;12.372;2023-07-29T04:29:41;18.70;99.90
36374;DHT22;22399;51.346;12.372;2023-07-29T04:32:09;18.80;99.90
36374;DHT22;22399;51.346;12.372;2023-07-29T04:34:40;18.90;99.90
36374;DHT22;22399;51.346;12.372;2023-07-29T04:37:08;19.00;99.90
36374;DHT22;22399;51.346;12.372;2023-07-29T04:39:36;19.10;99.90
36374;DHT22;22399;51.346;12.372;2023-07-29T04:42:05;19.20;99.90
36374;DHT22;22399;51.346;12.372;2023-07-29T04:44:34;19.30;99.90
36374;DHT22;22399;51.346;12.372;2023-07-29T04:47:03;19.40;99.90
36374;DHT22;22399;51.346;12.372;2023-07-29T04:49:31;19.40;99.90
36374;DHT22;22399;51.346;12.372;2023-07-29T04:52:01;19.40;99.90
36374;DHT22;22399;51.346;12.372;2023-07-29T04:54:30;19.40;99.90
36374;DHT22;22399;51.346;12.372;2023-07-29T04:56:58;19.30;99.90
36374;DHT22;22399;51.346;12.372;2023-07-29T04:59:27;19.30;99.90
36374;DHT22;22399;51.346;12.372;2023-07-29T05:01:56;19.30;99.90
36374;DHT22;22399;51.346;12.372;2023-07-29T05:04:24;19.30;99.90
36374;DHT22;22399;51.346;12.372;2023-07-29T05:06:53;19.30;99.90
36374;DHT22;22399;51.346;12.372;2023-07-29T05:09:23;19.40;99.90
36374;DHT22;22399;51.346;12.372;2023-07-29T05:11:55;19.50;99.90
36374;DHT22;22399;51.346;12.372;2023-07-29T05:14:23;19.50;99.90
36374;DHT22;22399;51.346;12.372;2023-07-29T05:16:51;19.60;99.90
36374;DHT22;22399;51.346;12.372;2023-07-29T05:19:20;19.60;99.90
36374;DHT22;22399;51.346;12.372;2023-07-29T05:21:48;19.70;99.90
36374;DHT22;22399;51.346;12.372;2023-07-29T05:24:17;19.80;99.90
36374;DHT22;22399;51.346;12.372;2023-07-29T05:26:47;19.90;99.90
36374;DHT22;22399;51.346;12.372;2023-07-29T05:29:15;20.00;99.90
36374;DHT22;22399;51.346;12.372;2023-07-29T05:31:44;20.10;99.90
36374;DHT22;22399;51.346;12.372;2023-07-29T05:34:12;20.20;99.90
36374;DHT22;22399;51.346;12.372;2023-07-29T05:36:41;20.50;99.90
36374;DHT22;22399;51.346;12.372;2023-07-29T05:39:10;20.70;99.90
36374;DHT22;22399;51.346;12.372;2023-07-29T05:41:39;20.80;99.90
36374;DHT22;22399;51.346;12.372;2023-07-29T05:44:09;21.00;99.90
36374;DHT22;22399;51.346;12.372;2023-07-29T05:46:37;21.20;99.90
36374;DHT22;22399;51.346;12.372;2023-07-29T05:49:07;21.20;99.90
36374;DHT22;22399;51.346;12.372;2023-07-29T05:51:45;21.30;99.90
36374;DHT22;22399;51.346;12.372;2023-07-29T05:54:14;21.50;99.90
36374;DHT22;22399;51.346;12.372;2023-07-29T05:56:42;21.70;99.90
36374;DHT22;22399;51.346;12.372;2023-07-29T05:59:14;21.80;99.90
36374;DHT22;22399;51.346;12.372;2023-07-29T06:01:42;22.00;99.90
36374;DHT22;22399;51.346;12.372;2023-07-29T06:04:12;22.20;99.90
36374;DHT22;22399;51.346;12.372;2023-07-29T06:06:40;22.30;99.90
36374;DHT22;22399;51.346;12.372;2023-07-29T06:09:09;23.10;99.90
36374;DHT22;22399;51.346;12.372;2023-07-29T06:11:38;24.20;99.90
36374;DHT22;22399;51.346;12.372;2023-07-29T06:14:06;24.90;99.90
36374;DHT22;22399;51.346;12.372;2023-07-29T06:16:36;25.30;99.90
36374;DHT22;22399;51.346;12.372;2023-07-29T06:19:05;25.50;99.90
36374;DHT22;22399;51.346;12.372;2023-07-29T06:21:36;26.10;99.90
36374;DHT22;22399;51.346;12.372;2023-07-29T06:24:04;26.10;99.90
36374;DHT22;22399;51.346;12.372;2023-07-29T06:26:36;26.80;99.90
36374;DHT22;22399;51.346;12.372;2023-07-29T06:29:05;27.00;99.90
36374;DHT22;22399;51.346;12.372;2023-07-29T06:31:33;26.80;99.90
36374;DHT22;22399;51.346;12.372;2023-07-29T06:34:03;26.30;99.90
36374;DHT22;22399;51.346;12.372;2023-07-29T06:36:31;26.30;99.90
36374;DHT22;22399;51.346;12.372;2023-07-29T06:39:00;26.80;99.90
36374;DHT22;22399;51.346;12.372;2023-07-29T06:41:29;26.50;99.90
36374;DHT22;22399;51.346;12.372;2023-07-29T06:43:59;26.20;99.90
36374;DHT22;22399;51.346;12.372;2023-07-29T06:46:27;26.40;99.90
36374;DHT22;22399;51.346;12.372;2023-07-29T06:48:56;27.10;99.90
36374;DHT22;22399;51.346;12.372;2023-07-29T06:51:25;27.50;99.90
36374;DHT22;22399;51.346;12.372;2023-07-29T06:53:56;27.60;98.40
36374;DHT22;22399;51.346;12.372;2023-07-29T06:56:25;27.70;96.50
36374;DHT22;22399;51.346;12.372;2023-07-29T06:58:53;26.90;95.90
36374;DHT22;22399;51.346;12.372;2023-07-29T07:01:22;26.30;99.90
36374;DHT22;22399;51.346;12.372;2023-07-29T07:03:50;26.70;99.90
36374;DHT22;22399;51.346;12.372;2023-07-29T07:06:22;27.40;98.00
36374;DHT22;22399;51.346;12.372;2023-07-29T07:08:53;27.60;96.20
36374;DHT22;22399;51.346;12.372;2023-07-29T07:11:22;27.70;94.60
36374;DHT22;22399;51.346;12.372;2023-07-29T07:13:50;27.90;93.90
36374;DHT22;22399;51.346;12.372;2023-07-29T07:16:19;27.80;92.80
36374;DHT22;22399;51.346;12.372;2023-07-29T07:18:48;27.90;93.60
36374;DHT22;22399;51.346;12.372;2023-07-29T07:21:17;28.70;92.30
36374;DHT22;22399;51.346;12.372;2023-07-29T07:23:45;29.50;91.60
36374;DHT22;22399;51.346;12.372;2023-07-29T07:26:15;28.70;90.30
36374;DHT22;22399;51.346;12.372;2023-07-29T07:28:43;27.80;90.60
36374;DHT22;22399;51.346;12.372;2023-07-29T07:31:12;27.00;92.30
36374;DHT22;22399;51.346;12.372;2023-07-29T07:33:40;26.50;93.50
36374;DHT22;22399;51.346;12.372;2023-07-29T07:36:08;26.20;94.40
36374;DHT22;22399;51.346;12.372;2023-07-29T07:38:37;26.00;94.90
36374;DHT22;22399;51.346;12.372;2023-07-29T07:41:05;25.80;95.70
36374;DHT22;22399;51.346;12.372;2023-07-29T07:43:35;25.60;95.60
36374;DHT22;22399;51.346;12.372;2023-07-29T07:46:03;25.70;96.00
36374;DHT22;22399;51.346;12.372;2023-07-29T07:48:32;25.70;95.20
36374;DHT22;22399;51.346;12.372;2023-07-29T07:51:04;25.80;94.70
36374;DHT22;22399;51.346;12.372;2023-07-29T07:53:37;25.60;94.00
36374;DHT22;22399;51.346;12.372;2023-07-29T07:56:07;25.40;94.60
36374;DHT22;22399;51.346;12.372;2023-07-29T07:58:37;25.20;94.30
36374;DHT22;22399;51.346;12.372;2023-07-29T08:01:07;25.10;94.30
36374;DHT22;22399;51.346;12.372;2023-07-29T08:03:36;25.10;94.80
36374;DHT22;22399;51.346;12.372;2023-07-29T08:06:04;25.30;94.70
36374;DHT22;22399;51.346;12.372;2023-07-29T08:08:36;25.50;93.00
36374;DHT22;22399;51.346;12.372;2023-07-29T08:11:05;25.60;92.90
36374;DHT22;22399;51.346;12.372;2023-07-29T08:13:33;25.30;92.50
36374;DHT22;22399;51.346;12.372;2023-07-29T08:16:03;25.00;93.10
36374;DHT22;22399;51.346;12.372;2023-07-29T08:18:32;24.80;93.80
36374;DHT22;22399;51.346;12.372;2023-07-29T08:21:01;24.80;93.40
36374;DHT22;22399;51.346;12.372;2023-07-29T08:23:32;24.70;94.00
36374;DHT22;22399;51.346;12.372;2023-07-29T08:26:01;24.70;94.10
36374;DHT22;22399;51.346;12.372;2023-07-29T08:28:32;24.80;94.10
36374;DHT22;22399;51.346;12.372;2023-07-29T08:31:02;24.70;93.60
36374;DHT22;22399;51.346;12.372;2023-07-29T08:33:32;24.50;93.70
36374;DHT22;22399;51.346;12.372;2023-07-29T08:36:01;24.50;94.20
36374;DHT22;22399;51.346;12.372;2023-07-29T08:38:30;24.50;94.40
36374;DHT22;22399;51.346;12.372;2023-07-29T08:41:06;24.70;94.50
36374;DHT22;22399;51.346;12.372;2023-07-29T08:43:39;25.10;94.00
36374;DHT22;22399;51.346;12.372;2023-07-29T08:46:12;25.60;93.50
36374;DHT22;22399;51.346;12.372;2023-07-29T08:48:41;25.90;92.10
36374;DHT22;22399;51.346;12.372;2023-07-29T08:51:11;25.90;91.90
36374;DHT22;22399;51.346;12.372;2023-07-29T08:53:40;25.70;91.90
36374;DHT22;22399;51.346;12.372;2023-07-29T08:56:09;25.50;91.30
36374;DHT22;22399;51.346;12.372;2023-07-29T08:58:39;25.30;91.40
36374;DHT22;22399;51.346;12.372;2023-07-29T09:01:08;25.20;92.00
36374;DHT22;22399;51.346;12.372;2023-07-29T09:03:38;25.10;92.20
36374;DHT22;22399;51.346;12.372;2023-07-29T09:06:07;25.30;92.50
36374;DHT22;22399;51.346;12.372;2023-07-29T09:08:36;25.50;92.10
36374;DHT22;22399;51.346;12.372;2023-07-29T09:11:05;26.00;92.30
36374;DHT22;22399;51.346;12.372;2023-07-29T09:13:34;26.30;91.40
36374;DHT22;22399;51.346;12.372;2023-07-29T09:16:04;26.60;91.20
36374;DHT22;22399;51.346;12.372;2023-07-29T09:18:32;26.90;91.10
36374;DHT22;22399;51.346;12.372;2023-07-29T09:21:02;26.60;89.10
36374;DHT22;22399;51.346;12.372;2023-07-29T09:23:39;26.50;89.40
36374;DHT22;22399;51.346;12.372;2023-07-29T09:26:09;26.30;89.70
36374;DHT22;22399;51.346;12.372;2023-07-29T09:28:38;26.40;89.20
36374;DHT22;22399;51.346;12.372;2023-07-29T09:31:07;26.30;87.60
36374;DHT22;22399;51.346;12.372;2023-07-29T09:33:46;26.40;87.80
36374;DHT22;22399;51.346;12.372;2023-07-29T09:36:18;26.50;87.40
36374;DHT22;22399;51.346;12.372;2023-07-29T09:38:52;26.50;86.60
36374;DHT22;22399;51.346;12.372;2023-07-29T09:41:22;26.50;86.60
36374;DHT22;22399;51.346;12.372;2023-07-29T09:43:56;26.60;86.40
36374;DHT22;22399;51.346;12.372;2023-07-29T09:46:31;26.70;86.30
36374;DHT22;22399;51.346;12.372;2023-07-29T09:49:02;26.50;86.10
36374;DHT22;22399;51.346;12.372;2023-07-29T09:51:31;26.00;85.90
36374;DHT22;22399;51.346;12.372;2023-07-29T09:54:05;25.50;87.00
36374;DHT22;22399;51.346;12.372;2023-07-29T09:56:33;25.20;87.40
36374;DHT22;22399;51.346;12.372;2023-07-29T09:59:07;25.00;88.00
36374;DHT22;22399;51.346;12.372;2023-07-29T10:01:35;24.90;88.80
36374;DHT22;22399;51.346;12.372;2023-07-29T10:04:05;24.90;89.20
36374;DHT22;22399;51.346;12.372;2023-07-29T10:06:39;25.00;90.10
36374;DHT22;22399;51.346;12.372;2023-07-29T10:09:11;25.30;90.30
36374;DHT22;22399;51.346;12.372;2023-07-29T10:11:41;25.30;90.00
36374;DHT22;22399;51.346;12.372;2023-07-29T10:14:10;25.40;90.10
36374;DHT22;22399;51.346;12.372;2023-07-29T10:16:40;25.60;90.20
36374;DHT22;22399;51.346;12.372;2023-07-29T10:19:09;25.90;90.20
36374;DHT22;22399;51.346;12.372;2023-07-29T10:21:42;26.00;88.70
36374;DHT22;22399;51.346;12.372;2023-07-29T10:24:15;26.00;87.60
36374;DHT22;22399;51.346;12.372;2023-07-29T10:26:46;26.00;88.00
36374;DHT22;22399;51.346;12.372;2023-07-29T10:29:19;26.00;88.10
36374;DHT22;22399;51.346;12.372;2023-07-29T10:31:47;25.80;87.90
36374;DHT22;22399;51.346;12.372;2023-07-29T10:34:16;25.70;88.20
36374;DHT22;22399;51.346;12.372;2023-07-29T10:36:47;25.50;88.60
36374;DHT22;22399;51.346;12.372;2023-07-29T10:39:16;25.30;89.50
36374;DHT22;22399;51.346;12.372;2023-07-29T10:41:59;25.30;89.90
36374;DHT22;22399;51.346;12.372;2023-07-29T10:44:48;25.40;89.80
36374;DHT22;22399;51.346;12.372;2023-07-29T10:47:19;25.40;89.20
36374;DHT22;22399;51.346;12.372;2023-07-29T10:49:50;25.70;89.70
36374;DHT22;22399;51.346;12.372;2023-07-29T10:52:31;25.60;88.50
36374;DHT22;22399;51.346;12.372;2023-07-29T10:55:24;25.50;88.50
36374;DHT22;22399;51.346;12.372;2023-07-29T10:58:08;25.40;88.60
36374;DHT22;22399;51.346;12.372;2023-07-29T11:00:36;25.70;90.30
36374;DHT22;22399;51.346;12.372;2023-07-29T11:03:06;26.30;90.00
36374;DHT22;22399;51.346;12.372;2023-07-29T11:05:43;26.60;89.00
36374;DHT22;22399;51.346;12.372;2023-07-29T11:08:26;26.90;88.80
36374;DHT22;22399;51.346;12.372;2023-07-29T11:11:03;27.10;87.20
36374;DHT22;22399;51.346;12.372;2023-07-29T11:13:34;27.10;84.80
36374;DHT22;22399;51.346;12.372;2023-07-29T11:16:03;27.20;84.40
36374;DHT22;22399;51.346;12.372;2023-07-29T11:18:34;27.40;83.50
36374;DHT22;22399;51.346;12.372;2023-07-29T11:21:03;27.30;82.60
36374;DHT22;22399;51.346;12.372;2023-07-29T11:23:35;27.30;83.10
36374;DHT22;22399;51.346;12.372;2023-07-29T11:26:04;27.30;83.80
36374;DHT22;22399;51.346;12.372;2023-07-29T11:28:38;27.40;84.00
36374;DHT22;22399;51.346;12.372;2023-07-29T11:31:07;27.10;82.90
36374;DHT22;22399;51.346;12.372;2023-07-29T11:33:39;26.90;82.00
36374;DHT22;22399;51.346;12.372;2023-07-29T11:36:17;26.60;82.40
36374;DHT22;22399;51.346;12.372;2023-07-29T11:38:48;26.50;82.70
36374;DHT22;22399;51.346;12.372;2023-07-29T11:41:20;26.60;82.10
36374;DHT22;22399;51.346;12.372;2023-07-29T11:43:50;26.70;81.60
36374;DHT22;22399;51.346;12.372;2023-07-29T11:46:21;26.80;80.90
36374;DHT22;22399;51.346;12.372;2023-07-29T11:49:04;26.80;81.00
36374;DHT22;22399;51.346;12.372;2023-07-29T11:54:54;26.90;80.00
36374;DHT22;22399;51.346;12.372;2023-07-29T11:57:23;26.80;79.20
36374;DHT22;22399;51.346;12.372;2023-07-29T11:59:55;26.70;79.00
36374;DHT22;22399;51.346;12.372;2023-07-29T12:02:42;26.80;79.50
36374;DHT22;22399;51.346;12.372;2023-07-29T12:05:21;27.20;79.30
36374;DHT22;22399;51.346;12.372;2023-07-29T12:07:51;27.30;78.80
36374;DHT22;22399;51.346;12.372;2023-07-29T12:10:21;27.20;78.70
36374;DHT22;22399;51.346;12.372;2023-07-29T12:12:50;27.10;79.10
36374;DHT22;22399;51.346;12.372;2023-07-29T12:15:26;26.90;78.40
36374;DHT22;22399;51.346;12.372;2023-07-29T12:17:56;26.70;78.80
36374;DHT22;22399;51.346;12.372;2023-07-29T12:20:25;26.60;78.50
36374;DHT22;22399;51.346;12.372;2023-07-29T12:22:55;26.40;78.80
36374;DHT22;22399;51.346;12.372;2023-07-29T12:25:26;26.20;79.60
36374;DHT22;22399;51.346;12.372;2023-07-29T12:27:55;26.00;79.80
36374;DHT22;22399;51.346;12.372;2023-07-29T12:30:24;26.10;79.80
36374;DHT22;22399;51.346;12.372;2023-07-29T12:32:53;26.10;79.40
36374;DHT22;22399;51.346;12.372;2023-07-29T12:35:21;26.40;79.90
36374;DHT22;22399;51.346;12.372;2023-07-29T12:37:58;26.90;79.60
36374;DHT22;22399;51.346;12.372;2023-07-29T12:40:28;27.30;78.70
36374;DHT22;22399;51.346;12.372;2023-07-29T12:42:56;27.20;77.40
36374;DHT22;22399;51.346;12.372;2023-07-29T12:45:25;27.20;77.40
36374;DHT22;22399;51.346;12.372;2023-07-29T12:47:56;27.30;78.10
36374;DHT22;22399;51.346;12.372;2023-07-29T12:50:24;27.20;77.50
36374;DHT22;22399;51.346;12.372;2023-07-29T12:52:52;27.30;78.10
36374;DHT22;22399;51.346;12.372;2023-07-29T12:55:21;27.40;78.20
36374;DHT22;22399;51.346;12.372;2023-07-29T12:57:51;27.50;77.80
36374;DHT22;22399;51.346;12.372;2023-07-29T13:00:20;27.60;77.50
36374;DHT22;22399;51.346;12.372;2023-07-29T13:02:48;27.80;76.40
36374;DHT22;22399;51.346;12.372;2023-07-29T13:05:17;27.80;76.20
36374;DHT22;22399;51.346;12.372;2023-07-29T13:07:46;27.60;75.90
36374;DHT22;22399;51.346;12.372;2023-07-29T13:10:14;27.40;76.80
36374;DHT22;22399;51.346;12.372;2023-07-29T13:12:43;27.20;76.40
36374;DHT22;22399;51.346;12.372;2023-07-29T13:15:12;27.40;77.10
36374;DHT22;22399;51.346;12.372;2023-07-29T13:17:41;27.60;77.00
36374;DHT22;22399;51.346;12.372;2023-07-29T13:20:09;27.30;76.40
36374;DHT22;22399;51.346;12.372;2023-07-29T13:22:37;27.60;75.70
36374;DHT22;22399;51.346;12.372;2023-07-29T13:25:06;27.70;75.30
36374;DHT22;22399;51.346;12.372;2023-07-29T13:27:34;28.30;74.90
36374;DHT22;22399;51.346;12.372;2023-07-29T13:30:04;29.30;73.80
36374;DHT22;22399;51.346;12.372;2023-07-29T13:32:34;29.50;72.20
36374;DHT22;22399;51.346;12.372;2023-07-29T13:35:03;29.90;72.40
36374;DHT22;22399;51.346;12.372;2023-07-29T13:37:32;30.40;71.50
36374;DHT22;22399;51.346;12.372;2023-07-29T13:40:00;30.70;71.20
36374;DHT22;22399;51.346;12.372;2023-07-29T13:42:29;31.10;70.10
36374;DHT22;22399;51.346;12.372;2023-07-29T13:44:57;31.10;70.20
36374;DHT22;22399;51.346;12.372;2023-07-29T13:47:25;30.50;71.30
36374;DHT22;22399;51.346;12.372;2023-07-29T13:49:55;30.00;70.80
36374;DHT22;22399;51.346;12.372;2023-07-29T13:52:23;29.70;70.40
36374;DHT22;22399;51.346;12.372;2023-07-29T13:54:52;29.70;70.90
36374;DHT22;22399;51.346;12.372;2023-07-29T13:57:20;30.30;70.80
36374;DHT22;22399;51.346;12.372;2023-07-29T13:59:49;29.80;70.90
36374;DHT22;22399;51.346;12.372;2023-07-29T14:02:17;29.00;72.00
36374;DHT22;22399;51.346;12.372;2023-07-29T14:04:45;28.50;72.30
36374;DHT22;22399;51.346;12.372;2023-07-29T14:07:15;28.20;73.10
36374;DHT22;22399;51.346;12.372;2023-07-29T14:09:43;27.90;72.20
36374;DHT22;22399;51.346;12.372;2023-07-29T14:12:11;27.80;73.00
36374;DHT22;22399;51.346;12.372;2023-07-29T14:14:42;28.00;73.40
36374;DHT22;22399;51.346;12.372;2023-07-29T14:17:10;28.20;73.20
36374;DHT22;22399;51.346;12.372;2023-07-29T14:19:39;28.20;72.30
36374;DHT22;22399;51.346;12.372;2023-07-29T14:22:07;28.10;72.70
36374;DHT22;22399;51.346;12.372;2023-07-29T14:24:37;28.20;72.40
36374;DHT22;22399;51.346;12.372;2023-07-29T14:27:05;28.00;72.20
36374;DHT22;22399;51.346;12.372;2023-07-29T14:29:34;27.80;72.40
36374;DHT22;22399;51.346;12.372;2023-07-29T14:32:02;27.70;72.60
36374;DHT22;22399;51.346;12.372;2023-07-29T14:34:31;26.90;73.10
36374;DHT22;22399;51.346;12.372;2023-07-29T14:36:59;25.70;79.00
36374;DHT22;22399;51.346;12.372;2023-07-29T14:39:28;24.60;86.80
36374;DHT22;22399;51.346;12.372;2023-07-29T14:41:58;23.80;92.50
36374;DHT22;22399;51.346;12.372;2023-07-29T14:44:26;23.20;97.60
36374;DHT22;22399;51.346;12.372;2023-07-29T14:46:54;22.80;99.90
36374;DHT22;22399;51.346;12.372;2023-07-29T14:49:23;22.70;99.90
36374;DHT22;22399;51.346;12.372;2023-07-29T14:51:51;22.50;99.90
36374;DHT22;22399;51.346;12.372;2023-07-29T14:54:20;22.30;99.90
36374;DHT22;22399;51.346;12.372;2023-07-29T14:56:48;22.20;99.90
36374;DHT22;22399;51.346;12.372;2023-07-29T14:59:18;22.10;99.90
36374;DHT22;22399;51.346;12.372;2023-07-29T15:01:46;22.10;99.90
36374;DHT22;22399;51.346;12.372;2023-07-29T15:04:14;21.90;99.90
36374;DHT22;22399;51.346;12.372;2023-07-29T15:06:43;21.80;99.90
36374;DHT22;22399;51.346;12.372;2023-07-29T15:09:12;21.70;99.90
36374;DHT22;22399;51.346;12.372;2023-07-29T15:11:40;21.40;99.90
36374;DHT22;22399;51.346;12.372;2023-07-29T15:14:09;21.10;99.90
36374;DHT22;22399;51.346;12.372;2023-07-29T15:16:39;20.70;99.90
36374;DHT22;22399;51.346;12.372;2023-07-29T15:19:07;20.50;99.90
36374;DHT22;22399;51.346;12.372;2023-07-29T15:21:36;20.40;99.90
36374;DHT22;22399;51.346;12.372;2023-07-29T15:24:04;20.30;99.90
36374;DHT22;22399;51.346;12.372;2023-07-29T15:26:33;20.00;99.90
36374;DHT22;22399;51.346;12.372;2023-07-29T15:29:03;19.80;99.90
36374;DHT22;22399;51.346;12.372;2023-07-29T15:31:32;19.60;99.90
36374;DHT22;22399;51.346;12.372;2023-07-29T15:34:01;19.40;99.90